CW2796 Weather Reports


time (UTC)temp
F
wind
direction
speed
knots
gust
knots
rain 1hr
in
rain 24hr
in
rain mn
in
humidity
%
barometer
mb
20220927023118 94 42 0.9 2.6 0.00 0.00 0.00 15 1009.9
20220927021559 96 46 0.9 2.6 0.00 0.00 0.00 14 1009.7
20220927020102 98 317 0.0 0.9 0.00 0.00 0.00 13 1009.6
20220927014601 100 0 0.0 1.7 0.00 0.00 0.00 13 1009.6
20220927013057 101 309 0.0 3.5 0.00 0.00 0.00 12 1009.4
20220927011555 101 313 1.7 3.5 0.00 0.00 0.00 12 1009.4
20220927010053 102 295 0.9 3.5 0.00 0.00 0.00 12 1009.3
20220927004558 102 305 1.7 5.2 0.00 0.00 0.00 12 1009.4
20220927003059 103 239 0.9 5.2 0.00 0.00 0.00 11 1009.5
20220927001603 103 229 0.9 3.5 0.00 0.00 0.00 10 1009.5
20220927000057 104 252 0.9 7.0 0.00 0.00 0.00 10 1009.6
20220926234547 104 271 1.7 6.1 0.00 0.00 0.00 10 1009.7
20220926233058 104 352 0.9 5.2 0.00 0.00 0.00 10 1009.9
20220926231549 105 325 0.9 6.1 0.00 0.00 0.00 9 1010.0
20220926230058 104 275 2.6 7.8 0.00 0.00 0.00 10 1010.0
20220926224558 103 307 2.6 6.1 0.00 0.00 0.00 10 1010.1
20220926223051 104 281 2.6 8.7 0.00 0.00 0.00 10 1010.3
20220926221606 103 203 4.3 7.8 0.00 0.00 0.00 10 1010.4
20220926220102 104 263 2.6 7.8 0.00 0.00 0.00 9 1010.6
20220926214554 104 243 3.5 8.7 0.00 0.00 0.00 10 1010.6
20220926213056 104 300 4.3 8.7 0.00 0.00 0.00 10 1010.7
20220926211622 104 342 0.9 7.8 0.00 0.00 0.00 9 1010.9
20220926210101 104 360 1.7 7.0 0.00 0.00 0.00 9 1011.1
20220926204553 104 333 0.9 7.8 0.00 0.00 0.00 9 1011.2
20220926203059 103 311 2.6 7.8 0.00 0.00 0.00 9 1011.5
20220926201625 103 260 1.7 6.1 0.00 0.00 0.00 9 1011.8
20220926200122 102 319 1.7 6.1 0.00 0.00 0.00 10 1012.1
20220926194553 102 326 2.6 7.8 0.00 0.00 0.00 9 1012.3
20220926193111 101 230 1.7 7.0 0.00 0.00 0.00 9 1012.4
20220926191557 100 300 2.6 7.8 0.00 0.00 0.00 10 1012.7
20220926190058 99 329 0.9 5.2 0.00 0.00 0.00 10 1012.9
20220926184552 99 333 2.6 5.2 0.00 0.00 0.00 10 1013.1
20220926183500 96 0 1.7 3.5 0.00 0.00 0.00 11 1013.2
20220926120102 76 0 0.0 1.7 0.00 0.00 0.00 19 1011.5
20220926114549 76 55 0.9 2.6 0.00 0.00 0.00 19 1011.4
20220926113120 77 62 0.9 1.7 0.00 0.00 0.00 18 1011.3
20220926111547 77 62 0.9 1.7 0.00 0.00 0.00 18 1011.3
20220926110058 77 0 0.0 2.6 0.00 0.00 0.00 18 1011.2
20220926104551 78 67 0.0 3.5 0.00 0.00 0.00 17 1011.2
20220926103057 78 57 0.0 1.7 0.00 0.00 0.00 18 1011.2
20220926101614 79 0 0.0 2.6 0.00 0.00 0.00 18 1011.2
20220926100111 80 0 0.0 2.6 0.00 0.00 0.00 17 1011.3
20220926094603 81 90 0.0 1.7 0.00 0.00 0.00 17 1011.3
20220926093105 82 121 0.0 1.7 0.00 0.00 0.00 16 1011.5
20220926091559 82 133 0.0 3.5 0.00 0.00 0.00 16 1011.4
20220926090055 83 156 0.9 2.6 0.00 0.00 0.00 15 1011.4
20220926084608 84 159 0.9 4.3 0.00 0.00 0.00 14 1011.3
20220926083138 84 0 0.0 3.5 0.00 0.00 0.00 14 1011.3
20220926081611 84 30 0.0 5.2 0.00 0.00 0.00 13 1011.4
20220926080105 84 0 0.0 2.6 0.00 0.00 0.00 13 1011.3
20220926074602 85 323 0.9 2.6 0.00 0.00 0.00 13 1011.3
20220926073119 85 252 0.9 2.6 0.00 0.00 0.00 13 1011.4
20220926071557 87 0 0.0 2.6 0.00 0.00 0.00 12 1011.4
20220926070101 89 0 0.0 3.5 0.00 0.00 0.00 11 1011.4
20220926064548 90 0 0.0 4.3 0.00 0.00 0.00 11 1011.5
20220926063055 90 33 2.6 6.1 0.00 0.00 0.00 10 1011.5
20220926061551 90 59 0.9 4.3 0.00 0.00 0.00 11 1011.6
20220926060056 90 19 1.7 5.2 0.00 0.00 0.00 11 1011.6
20220926054616 91 32 3.5 8.7 0.00 0.00 0.00 10 1011.7
20220926053100 91 344 2.6 7.8 0.00 0.00 0.00 10 1011.7
20220926051600 91 360 2.6 7.0 0.00 0.00 0.00 10 1011.7
20220926050110 91 49 2.6 6.1 0.00 0.00 0.00 10 1011.7
20220926044609 91 33 3.5 8.7 0.00 0.00 0.00 10 1011.6
20220926043050 91 11 3.5 6.1 0.00 0.00 0.00 10 1011.7
20220926041558 91 34 2.6 7.0 0.00 0.00 0.00 9 1011.6
20220926040053 92 45 2.6 7.8 0.00 0.00 0.00 9 1011.7
20220926034555 92 50 4.3 8.7 0.00 0.00 0.00 9 1011.7
20220926033101 93 44 3.5 5.2 0.00 0.00 0.00 9 1011.6
20220926031603 93 25 1.7 4.3 0.00 0.00 0.00 9 1011.5
20220926030053 94 37 2.6 5.2 0.00 0.00 0.00 9 1011.4
20220926024606 95 5 3.5 8.7 0.00 0.00 0.00 9 1011.3